Time;durP1;ratioP1;P1;durP2;ratioP2;P2;SDS_P1;SDS_P2;PMS_P1;PMS_P2;Temp;Humidity;BMP_temperature;BMP_pressure;BME280_temperature;BME280_humidity;BME280_pressure;Samples;Min_cycle;Max_cycle;Signal;HPM_P1;HPM_P2
2022/06/14 00:03:04;;;;;;;3.58;1.30;;;;;;;22.34;52.55;98396.66;5018230;28;20248;-61
2022/06/14 00:05:30;;;;;;;4.78;1.40;;;;;;;22.63;53.34;98421.47;5015669;28;20910;-61
2022/06/14 00:07:56;;;;;;;3.50;1.30;;;;;;;22.82;51.08;98432.81;5008822;28;20032;-61
2022/06/14 00:10:21;;;;;;;3.17;1.17;;;;;;;22.59;49.95;98429.06;5009602;28;20108;-61
2022/06/14 00:12:46;;;;;;;3.38;1.30;;;;;;;22.18;50.51;98435.16;5016953;28;20171;-61
2022/06/14 00:15:12;;;;;;;3.00;1.25;;;;;;;22.19;51.26;98434.09;5010105;28;20036;-61
2022/06/14 00:17:37;;;;;;;4.15;1.35;;;;;;;22.25;51.81;98427.91;5008129;28;20113;-61
2022/06/14 00:20:03;;;;;;;3.10;1.20;;;;;;;22.37;52.10;98428.00;5013443;28;20076;-61
2022/06/14 00:22:29;;;;;;;4.10;1.30;;;;;;;22.26;51.97;98406.53;4991937;28;20388;-60
2022/06/14 00:24:55;;;;;;;3.25;1.48;;;;;;;22.55;52.75;98429.78;5016686;28;20030;-61
2022/06/14 00:27:20;;;;;;;4.25;1.30;;;;;;;22.52;52.29;98425.72;5016621;28;20030;-61
2022/06/14 00:29:46;;;;;;;4.13;1.50;;;;;;;22.47;51.84;98438.84;5017078;28;20060;-62
2022/06/14 00:32:11;;;;;;;3.70;1.20;;;;;;;22.57;52.45;98433.00;5018449;28;20083;-61
2022/06/14 00:34:37;;;;;;;3.42;1.20;;;;;;;22.41;51.60;98435.25;4995079;28;20025;-60
2022/06/14 00:37:03;;;;;;;3.92;1.15;;;;;;;22.44;51.92;98431.34;5016237;28;20068;-61
2022/06/14 00:39:29;;;;;;;3.75;1.30;;;;;;;22.45;51.49;98431.13;5019100;28;20132;-62
2022/06/14 00:41:55;;;;;;;3.85;1.33;;;;;;;22.45;51.57;98446.19;5020976;28;20039;-62
2022/06/14 00:44:23;;;;;;;3.42;1.20;;;;;;;22.45;52.57;98447.03;5018755;28;20028;-60
2022/06/14 00:47:04;;;;;;;2.72;1.08;;;;;;;22.49;51.72;98446.56;5021230;28;20542;-62
2022/06/14 00:49:39;;;;;;;3.92;1.30;;;;;;;22.51;53.20;98453.25;4994223;28;20080;-61
2022/06/14 00:52:15;;;;;;;3.42;1.30;;;;;;;22.52;51.31;98451.41;5015181;28;20436;-61
2022/06/14 00:54:41;;;;;;;3.45;1.20;;;;;;;22.46;51.95;98448.63;5019836;28;20044;-62
2022/06/14 00:57:11;;;;;;;3.45;1.17;;;;;;;22.56;52.87;98461.34;5009156;28;20514;-61
2022/06/14 00:59:53;;;;;;;3.88;1.30;;;;;;;22.43;52.73;98454.41;5019874;28;22214;-62
2022/06/14 01:02:24;;;;;;;2.95;1.10;;;;;;;22.21;53.40;98426.75;5020651;28;20045;-61
2022/06/14 01:04:50;;;;;;;2.97;1.10;;;;;;;22.25;53.65;98425.25;5013611;28;20951;-61
2022/06/14 01:07:26;;;;;;;4.03;1.20;;;;;;;22.41;53.79;98456.44;5016566;28;20156;-62
2022/06/14 01:09:59;;;;;;;3.90;1.20;;;;;;;22.24;53.48;98429.75;5014707;28;20034;-60
2022/06/14 01:12:30;;;;;;;7.65;1.60;;;;;;;22.34;53.95;98455.75;4999071;28;20033;-62
2022/06/14 01:15:19;;;;;;;3.88;1.27;;;;;;;22.22;51.99;98458.31;5010499;28;20051;-61
2022/06/14 01:17:53;;;;;;;;;;;;;;;22.29;51.49;98455.59;5014286;28;20458;-61
2022/06/14 01:20:20;;;;;;;3.13;1.10;;;;;;;22.31;51.10;98461.47;5016752;28;19936;-61
2022/06/14 01:22:46;;;;;;;3.00;1.17;;;;;;;22.32;50.58;98463.09;5015337;28;20025;-61
2022/06/14 01:25:12;;;;;;;3.22;1.13;;;;;;;22.26;52.24;98459.50;4992130;28;20029;-62
2022/06/14 01:27:40;;;;;;;3.30;1.10;;;;;;;22.15;52.41;98430.31;5017506;28;20025;-61
2022/06/14 01:30:11;;;;;;;4.57;1.40;;;;;;;22.35;52.32;98460.00;5001598;28;20037;-60
2022/06/14 01:32:47;;;;;;;3.72;1.20;;;;;;;22.27;52.14;98469.06;5003885;28;20545;-60
2022/06/14 01:35:16;;;;;;;2.83;1.10;;;;;;;21.97;52.02;98466.34;5010965;28;20492;-61
2022/06/14 01:37:42;;;;;;;4.82;1.20;;;;;;;22.07;50.92;98476.44;5013570;28;20033;-61
2022/06/14 01:40:08;;;;;;;3.80;1.20;;;;;;;22.24;50.70;98476.63;5008492;28;20100;-61
2022/06/14 01:42:47;;;;;;;4.30;1.40;;;;;;;22.22;50.85;98490.09;5011239;28;20040;-62
2022/06/14 01:45:38;;;;;;;4.73;1.40;;;;;;;22.13;51.69;98488.78;4996338;28;20397;-62
2022/06/14 01:48:24;;;;;;;3.80;1.15;;;;;;;22.15;52.33;98502.59;4998752;28;20311;-60
2022/06/14 01:54:14;;;;;;;4.65;1.27;;;;;;;22.14;53.05;98505.47;5012896;28;20172;-61
2022/06/14 01:56:54;;;;;;;3.30;1.30;;;;;;;22.02;53.55;98510.69;5019298;28;20025;-61
2022/06/14 01:59:34;;;;;;;3.78;1.52;;;;;;;21.87;53.90;98503.94;5006909;28;20129;-61
2022/06/14 02:02:12;;;;;;;4.40;1.50;;;;;;;21.72;54.15;98479.66;5011700;28;20453;-60
2022/06/14 02:05:00;;;;;;;3.60;1.40;;;;;;;21.95;54.23;98515.25;5011928;28;20038;-61
2022/06/14 02:07:45;;;;;;;5.50;1.60;;;;;;;21.62;54.93;98484.66;5019706;28;20546;-61
2022/06/14 02:10:16;;;;;;;3.15;1.30;;;;;;;21.73;55.05;98509.59;5002370;28;20034;-60
2022/06/14 02:12:43;;;;;;;4.70;1.25;;;;;;;21.46;55.50;98508.00;5018236;28;20217;-60
2022/06/14 02:15:52;;;;;;;3.80;1.42;;;;;;;21.48;55.42;98508.59;4997698;28;20247;-61
2022/06/14 02:18:24;;;;;;;3.50;1.30;;;;;;;21.55;55.21;98505.88;5008958;28;20041;-61
2022/06/14 02:21:08;;;;;;;5.35;1.40;;;;;;;21.47;55.47;98496.41;5017930;28;20503;-60
2022/06/14 02:23:38;;;;;;;3.80;1.48;;;;;;;21.48;55.34;98518.34;5010148;28;20025;-62
2022/06/14 02:26:06;;;;;;;4.10;1.60;;;;;;;21.44;55.88;98517.94;5010185;28;20121;-60
2022/06/14 02:28:43;;;;;;;4.68;1.73;;;;;;;21.19;56.28;98522.44;4998805;28;20032;-60
2022/06/14 02:31:13;;;;;;;5.25;1.50;;;;;;;21.26;55.95;98502.03;5010445;28;20211;-60
2022/06/14 02:33:46;;;;;;;4.25;1.60;;;;;;;21.26;56.52;98524.00;5015313;28;20111;-63
2022/06/14 02:36:20;;;;;;;4.07;1.55;;;;;;;20.57;56.53;98429.75;5019248;28;20040;-61
2022/06/14 02:38:53;;;;;;;4.93;1.80;;;;;;;20.91;56.92;98478.72;5012530;28;20022;-61
2022/06/14 02:41:28;;;;;;;4.53;1.52;;;;;;;21.11;56.80;98521.69;5015926;28;20037;-61
2022/06/14 02:44:40;;;;;;;5.00;1.40;;;;;;;21.14;56.09;98528.38;5023953;28;20469;-61
2022/06/14 02:47:13;;;;;;;3.80;1.50;;;;;;;21.13;56.51;98530.19;5009191;28;20136;-61
2022/06/14 02:49:43;;;;;;;3.50;1.40;;;;;;;21.22;57.98;98532.59;5007506;28;20029;-61
2022/06/14 02:52:23;;;;;;;4.05;1.55;;;;;;;21.17;57.59;98535.88;5011859;28;20061;-62
2022/06/14 02:54:53;;;;;;;;;;;;;;;21.13;57.54;98532.84;5017389;28;20132;-62
2022/06/14 02:57:38;;;;;;;4.03;1.40;;;;;;;20.76;56.97;98497.53;5016734;28;19928;-63
2022/06/14 03:00:17;;;;;;;4.50;1.50;;;;;;;21.04;57.20;98530.69;5029748;28;20033;-62
2022/06/14 03:03:06;;;;;;;3.80;1.48;;;;;;;20.89;58.58;98504.56;4993751;28;20579;-62
2022/06/14 03:05:56;;;;;;;3.47;1.50;;;;;;;20.98;57.48;98539.47;5013071;28;20037;-61
2022/06/14 03:08:29;;;;;;;3.50;1.40;;;;;;;20.95;57.35;98542.53;5018443;28;20057;-61
2022/06/14 03:10:58;;;;;;;4.60;1.25;;;;;;;20.92;57.93;98539.31;4993415;28;20512;-61
2022/06/14 03:13:47;;;;;;;3.28;1.25;;;;;;;21.10;58.22;98538.59;5010535;28;20030;-61
2022/06/14 03:16:21;;;;;;;3.25;1.27;;;;;;;21.19;57.14;98546.22;5014810;28;20026;-61
2022/06/14 03:19:10;;;;;;;4.88;1.20;;;;;;;21.22;57.89;98540.53;5014402;28;20084;-60
2022/06/14 03:21:37;;;;;;;;;;;;;;;21.19;56.65;98547.06;5029603;28;20263;-62
2022/06/14 03:24:11;;;;;;;3.92;1.08;;;;;;;21.02;55.89;98540.66;5005833;28;19956;-61
2022/06/14 03:27:00;;;;;;;3.72;1.30;;;;;;;20.92;55.33;98531.38;5029750;28;20117;-62
2022/06/14 03:29:37;;;;;;;2.92;1.23;;;;;;;21.23;56.60;98548.25;4997074;28;20546;-61
2022/06/14 03:32:13;;;;;;;3.67;1.75;;;;;;;21.21;55.97;98549.47;4995602;28;20812;-61
2022/06/14 03:34:46;;;;;;;3.42;1.33;;;;;;;21.21;55.72;98549.47;5010691;28;21084;-61
2022/06/14 03:37:12;;;;;;;4.07;1.40;;;;;;;21.17;56.37;98546.44;5013417;28;20029;-61
2022/06/14 03:39:42;;;;;;;4.43;1.42;;;;;;;21.25;56.69;98550.69;5015686;28;20045;-61
2022/06/14 03:42:08;;;;;;;;;;;;;;;21.28;56.78;98558.16;5011415;28;20041;-61
2022/06/14 03:44:34;;;;;;;3.47;1.20;;;;;;;21.27;56.77;98554.72;4997458;28;19925;-61
2022/06/14 03:47:15;;;;;;;4.13;1.30;;;;;;;21.26;56.61;98562.84;5030126;28;20088;-61
2022/06/14 03:49:43;;;;;;;3.97;1.30;;;;;;;21.19;56.24;98552.34;5009895;28;20030;-61
2022/06/14 03:52:21;;;;;;;3.83;1.45;;;;;;;21.21;55.83;98567.97;5012479;28;20030;-62
2022/06/14 03:54:52;;;;;;;5.95;1.63;;;;;;;21.27;55.33;98567.13;5017390;28;20032;-61
2022/06/14 03:57:30;;;;;;;3.65;1.50;;;;;;;21.12;55.33;98573.53;5013462;28;20148;-61
2022/06/14 04:00:27;;;;;;;4.10;1.30;;;;;;;20.94;55.68;98557.59;5018663;28;20048;-61
2022/06/14 04:03:03;;;;;;;3.20;1.30;;;;;;;20.98;55.70;98569.34;5020297;28;20033;-61
2022/06/14 04:05:31;;;;;;;3.78;1.40;;;;;;;20.99;56.26;98576.28;5017497;28;20731;-60
2022/06/14 04:08:16;;;;;;;3.65;1.40;;;;;;;20.96;57.01;98578.53;5015897;28;20026;-61
2022/06/14 04:10:47;;;;;;;4.13;1.23;;;;;;;20.92;56.61;98581.59;5016802;28;20030;-61
2022/06/14 04:13:26;;;;;;;3.50;1.30;;;;;;;20.57;56.69;98552.06;5018859;28;20034;-61
2022/06/14 04:16:04;;;;;;;5.07;1.45;;;;;;;20.81;56.51;98595.47;5019855;28;20373;-61
2022/06/14 04:18:47;;;;;;;3.55;1.40;;;;;;;20.66;56.70;98594.94;5016017;28;20036;-61
2022/06/14 04:21:32;;;;;;;3.47;1.40;;;;;;;20.49;56.53;98568.16;5005754;28;20085;-61
2022/06/14 04:24:34;;;;;;;3.65;1.40;;;;;;;20.70;56.28;98596.16;5003379;28;20029;-61
2022/06/14 04:27:08;;;;;;;3.80;1.40;;;;;;;20.68;55.33;98591.06;4994907;28;20095;-61
2022/06/14 04:29:57;;;;;;;3.50;1.40;;;;;;;20.67;55.09;98593.91;5014700;28;20148;-61
2022/06/14 04:32:26;;;;;;;4.80;1.13;;;;;;;20.67;55.17;98599.19;5015479;28;20732;-61
2022/06/14 04:34:58;;;;;;;4.50;1.30;;;;;;;20.68;54.94;98593.72;5019350;28;20037;-62
2022/06/14 04:37:26;;;;;;;3.80;1.40;;;;;;;20.50;55.37;98569.78;5015147;28;20065;-61
2022/06/14 04:39:58;;;;;;;4.03;1.63;;;;;;;20.60;55.79;98593.09;5012561;28;20037;-61
2022/06/14 04:42:39;;;;;;;3.03;1.38;;;;;;;20.60;55.59;98603.69;5008396;28;20029;-61
2022/06/14 04:45:16;;;;;;;4.15;2.15;;;;;;;20.68;55.74;98606.09;5017028;28;20040;-61
2022/06/14 04:48:06;;;;;;;3.75;1.30;;;;;;;20.60;55.43;98607.13;5014043;28;20026;-61
2022/06/14 04:50:41;;;;;;;4.65;1.63;;;;;;;20.58;55.87;98595.94;5017837;28;20332;-61
2022/06/14 04:53:17;;;;;;;5.00;1.42;;;;;;;20.69;54.83;98605.09;5011777;28;20132;-61
2022/06/14 04:55:54;;;;;;;3.60;1.50;;;;;;;20.64;55.24;98597.78;4999164;28;20040;-61
2022/06/14 04:58:36;;;;;;;4.07;1.50;;;;;;;20.40;55.14;98578.16;5006579;28;20670;-62
2022/06/14 05:01:07;;;;;;;4.10;1.52;;;;;;;20.67;54.67;98607.13;4993923;28;20033;-61
2022/06/14 05:03:43;;;;;;;3.38;1.30;;;;;;;20.47;53.91;98578.94;5008941;28;20030;-61
2022/06/14 05:06:13;;;;;;;3.65;1.40;;;;;;;20.69;54.91;98618.28;4994761;28;20049;-61
2022/06/14 05:08:46;;;;;;;3.38;1.30;;;;;;;20.60;55.23;98603.69;4994348;28;20038;-61
2022/06/14 05:11:28;;;;;;;3.40;1.40;;;;;;;20.61;55.25;98607.94;5006764;28;20025;-61
2022/06/14 05:14:08;;;;;;;3.58;1.17;;;;;;;20.63;56.06;98614.66;5009767;28;20534;-61
2022/06/14 05:16:42;;;;;;;4.30;1.35;;;;;;;20.63;56.48;98616.50;5013484;28;20033;-61
2022/06/14 05:19:30;;;;;;;6.40;1.70;;;;;;;20.66;56.61;98614.25;5010077;28;20056;-61
2022/06/14 05:22:20;;;;;;;3.83;1.30;;;;;;;20.51;56.61;98588.06;5025266;28;20034;-61
2022/06/14 05:24:45;;;;;;;3.92;1.48;;;;;;;20.62;56.87;98614.88;5005804;28;20469;-62
2022/06/14 05:27:24;;;;;;;3.95;1.40;;;;;;;20.78;56.74;98614.38;5015753;28;20037;-62
2022/06/14 05:29:58;;;;;;;3.63;1.40;;;;;;;20.68;56.41;98616.66;5009567;28;20105;-61
2022/06/14 05:32:45;;;;;;;4.18;1.42;;;;;;;20.68;55.62;98622.78;5011031;28;20033;-61
2022/06/14 05:35:35;;;;;;;3.47;1.38;;;;;;;20.73;56.11;98628.22;5021971;28;20032;-61
2022/06/14 05:38:36;;;;;;;4.57;1.50;;;;;;;20.74;55.55;98637.78;5021564;28;20132;-61
2022/06/14 05:41:05;;;;;;;3.83;1.40;;;;;;;20.74;55.44;98631.69;5019393;28;20029;-62
2022/06/14 05:43:34;;;;;;;;;;;;;;;20.69;54.85;98642.88;5012003;28;20037;-62
2022/06/14 05:46:07;;;;;;;4.85;1.60;;;;;;;20.78;52.72;98640.81;5017508;28;19921;-61
2022/06/14 05:48:51;;;;;;;6.82;1.60;;;;;;;20.77;53.26;98641.81;5018503;28;20026;-61
2022/06/14 05:51:23;;;;;;;3.75;1.55;;;;;;;20.74;52.85;98631.69;5008008;28;20038;-61
2022/06/14 05:54:30;;;;;;;3.65;1.35;;;;;;;20.84;53.17;98645.25;5010603;28;20067;-61
2022/06/14 05:57:05;;;;;;;3.88;1.42;;;;;;;20.81;53.87;98645.69;5004318;28;20049;-62
2022/06/14 05:59:49;;;;;;;4.28;1.20;;;;;;;20.80;53.25;98645.88;5011051;28;20473;-62
2022/06/14 06:02:29;;;;;;;5.10;1.50;;;;;;;20.64;52.24;98618.09;5016490;28;20380;-63
2022/06/14 06:05:05;;;;;;;4.75;1.48;;;;;;;20.81;51.93;98652.78;5015340;28;20025;-62
2022/06/14 06:07:34;;;;;;;5.28;1.33;;;;;;;20.82;51.56;98655.22;5010027;28;20048;-63
2022/06/14 06:10:06;;;;;;;3.47;1.30;;;;;;;20.71;51.36;98616.25;5016363;28;20040;-64
2022/06/14 06:12:37;;;;;;;3.67;1.48;;;;;;;20.96;52.02;98660.47;5018748;28;20113;-62
2022/06/14 06:15:07;;;;;;;3.90;1.40;;;;;;;20.87;51.95;98651.97;5021267;28;20025;-62
2022/06/14 06:17:35;;;;;;;4.15;1.42;;;;;;;20.91;51.55;98666.38;5008923;28;20026;-62
2022/06/14 06:20:31;;;;;;;3.55;1.30;;;;;;;20.77;51.39;98631.25;5020455;28;20030;-62
2022/06/14 06:23:19;;;;;;;3.30;1.25;;;;;;;20.80;51.91;98637.97;5015014;28;20407;-62
2022/06/14 06:25:48;;;;;;;3.30;1.30;;;;;;;21.09;51.63;98663.84;5017982;28;20044;-61
2022/06/14 06:28:16;;;;;;;4.10;1.50;;;;;;;21.07;51.67;98676.44;5020957;28;20030;-62
2022/06/14 06:31:07;;;;;;;3.45;1.27;;;;;;;21.12;51.59;98675.84;5010735;28;20033;-62
2022/06/14 06:33:35;;;;;;;3.35;1.23;;;;;;;21.05;52.16;98673.22;5019238;28;20606;-62
2022/06/14 06:36:16;;;;;;;4.55;1.35;;;;;;;21.04;52.03;98676.88;5006612;28;20237;-62
2022/06/14 06:38:41;;;;;;;5.20;1.55;;;;;;;21.20;52.16;98669.47;5015594;28;20033;-62
2022/06/14 06:44:06;;;;;;;4.25;1.80;;;;;;;21.10;51.67;98675.22;5018907;28;20534;-62
2022/06/14 06:46:36;;;;;;;4.07;1.70;;;;;;;21.17;52.74;98675.19;5032880;28;20112;-62
2022/06/14 06:49:06;;;;;;;3.92;1.40;;;;;;;21.25;52.69;98681.03;5007159;28;20060;-62
2022/06/14 06:51:39;;;;;;;4.47;1.38;;;;;;;21.41;51.92;98685.03;5011193;28;20026;-62
2022/06/14 06:54:22;;;;;;;4.63;1.50;;;;;;;21.48;50.74;98682.34;5008523;28;20385;-62
2022/06/14 06:56:51;;;;;;;3.55;1.30;;;;;;;21.46;49.51;98684.41;5000420;28;20033;-62
2022/06/14 06:59:28;;;;;;;5.22;1.35;;;;;;;21.54;48.71;98691.25;5016152;28;20159;-61
2022/06/14 07:01:56;;;;;;;4.35;1.38;;;;;;;21.55;48.77;98682.31;5012235;28;20037;-63
2022/06/14 07:07:14;;;;;;;3.80;1.35;;;;;;;21.74;50.64;98689.31;5019044;28;20546;-62
2022/06/14 07:09:48;;;;;;;4.80;1.50;;;;;;;21.85;50.32;98691.25;4996911;28;22177;-62
2022/06/14 07:12:37;;;;;;;3.75;1.40;;;;;;;21.95;48.26;98693.41;5017420;28;20033;-62
2022/06/14 07:15:14;;;;;;;5.38;1.63;;;;;;;21.86;48.70;98697.34;5014420;28;20144;-62
2022/06/14 07:17:42;;;;;;;3.88;1.30;;;;;;;21.97;48.12;98706.44;4991251;28;20034;-62
2022/06/14 07:20:24;;;;;;;3.63;1.25;;;;;;;21.96;47.36;98702.16;5010796;28;20040;-62
2022/06/14 07:22:53;;;;;;;3.70;1.27;;;;;;;22.15;49.45;98700.38;5014578;28;20149;-62
2022/06/14 07:25:24;;;;;;;3.70;1.27;;;;;;;21.93;47.86;98662.91;5011908;28;20100;-62
2022/06/14 07:27:53;;;;;;;3.42;1.20;;;;;;;22.10;48.02;98694.91;5012264;28;20476;-62
2022/06/14 07:30:26;;;;;;;3.75;1.35;;;;;;;22.14;47.54;98688.97;5016077;28;20037;-62
2022/06/14 07:32:54;;;;;;;4.43;1.52;;;;;;;22.03;48.35;98663.19;5029370;28;20652;-62
2022/06/14 07:36:02;;;;;;;3.63;1.33;;;;;;;22.26;49.04;98689.09;4997976;28;20066;-62
2022/06/14 07:38:48;;;;;;;4.13;1.40;;;;;;;22.20;48.07;98692.59;4995231;28;20044;-62
2022/06/14 07:41:17;;;;;;;3.85;1.30;;;;;;;22.56;47.73;98693.66;5019108;28;20033;-63
2022/06/14 07:43:57;;;;;;;4.43;1.60;;;;;;;23.14;46.50;98693.22;5014125;28;20033;-63
2022/06/14 07:46:35;;;;;;;;;;;;;;;23.52;45.91;98694.72;5024141;28;20034;-63
2022/06/14 07:49:05;;;;;;;3.65;1.40;;;;;;;23.73;44.58;98685.44;5011813;28;19924;-63
2022/06/14 07:51:30;;;;;;;3.75;1.30;;;;;;;24.02;43.15;98698.06;5030312;28;20488;-61
2022/06/14 07:54:38;;;;;;;3.75;1.50;;;;;;;24.33;42.64;98692.44;5041217;28;20055;-62
2022/06/14 07:57:13;;;;;;;4.70;1.50;;;;;;;24.42;41.13;98687.56;4975007;28;20045;-63
2022/06/14 08:03:35;;;;;;;4.63;1.70;;;;;;;24.85;41.16;98689.00;4995726;28;20515;-63
2022/06/14 08:06:11;;;;;;;4.22;1.42;;;;;;;24.99;39.70;98686.91;4996864;28;20447;-63
2022/06/14 08:08:38;;;;;;;3.53;1.48;;;;;;;25.44;39.30;98682.66;5021607;28;20029;-64
2022/06/14 08:11:07;;;;;;;5.28;1.40;;;;;;;25.88;38.79;98686.34;4997818;28;20547;-64
2022/06/14 08:13:39;;;;;;;4.47;1.40;;;;;;;26.01;38.00;98679.06;5000861;28;20038;-63
2022/06/14 08:16:06;;;;;;;5.03;1.40;;;;;;;25.76;38.63;98676.81;5022415;28;20688;-63
2022/06/14 08:18:36;;;;;;;4.22;1.33;;;;;;;25.78;38.13;98680.03;5019923;28;20124;-62
2022/06/14 08:21:09;;;;;;;4.45;1.50;;;;;;;26.14;39.09;98688.59;5021199;28;20585;-63
2022/06/14 08:23:41;;;;;;;4.43;1.40;;;;;;;26.14;37.29;98688.59;4993634;28;20033;-63
2022/06/14 08:26:18;;;;;;;3.70;1.50;;;;;;;26.52;36.13;98695.78;4996102;28;20411;-62
2022/06/14 08:28:49;;;;;;;4.13;1.48;;;;;;;26.00;36.30;98667.63;5017507;28;20666;-63
2022/06/14 08:31:26;;;;;;;3.67;1.35;;;;;;;26.12;37.24;98704.84;5023532;28;20036;-62
2022/06/14 08:33:59;;;;;;;4.78;1.35;;;;;;;25.90;37.08;98665.59;5029601;28;20022;-62
2022/06/14 08:36:47;;;;;;;4.68;1.70;;;;;;;25.96;36.58;98666.50;5019503;28;20133;-63
2022/06/14 08:39:21;;;;;;;3.60;1.40;;;;;;;25.84;37.78;98687.06;5008638;28;20048;-63
2022/06/14 08:42:06;;;;;;;5.22;1.50;;;;;;;25.88;34.94;98673.03;5020726;28;20022;-63
2022/06/14 08:44:40;;;;;;;4.05;1.30;;;;;;;26.24;38.80;98692.22;5018202;28;20106;-63
2022/06/14 08:47:40;;;;;;;3.78;1.50;;;;;;;26.64;39.54;98687.72;5008043;28;20037;-63
2022/06/14 08:50:09;;;;;;;4.03;1.60;;;;;;;26.99;40.03;98686.50;5035143;28;20033;-63
2022/06/14 08:52:41;;;;;;;4.45;1.60;;;;;;;27.14;40.89;98683.19;5017513;28;20094;-64
2022/06/14 08:55:25;;;;;;;4.15;1.60;;;;;;;27.05;41.47;98672.16;5025069;28;20569;-65
2022/06/14 08:58:24;;;;;;;4.30;2.00;;;;;;;27.28;42.14;98681.78;5019884;28;20040;-64
2022/06/14 09:01:29;;;;;;;4.32;1.80;;;;;;;26.71;43.39;98674.19;5010595;28;20033;-64
2022/06/14 09:04:09;;;;;;;4.70;1.70;;;;;;;26.97;43.28;98678.75;5014485;28;20029;-64
2022/06/14 09:07:09;;;;;;;4.43;1.90;;;;;;;26.94;42.73;98673.94;5026551;28;20030;-64
2022/06/14 09:09:46;;;;;;;5.05;2.03;;;;;;;27.39;41.56;98670.13;5018450;28;20021;-64
2022/06/14 09:12:51;;;;;;;4.45;2.30;;;;;;;27.70;40.64;98672.25;5034309;28;20363;-64
2022/06/14 09:15:58;;;;;;;6.82;2.33;;;;;;;28.03;41.12;98668.50;5018883;28;20018;-63
2022/06/14 09:18:29;;;;;;;4.63;2.20;;;;;;;28.54;40.07;98642.06;5014846;28;20038;-64
2022/06/14 09:21:22;;;;;;;4.10;1.88;;;;;;;29.04;39.80;98671.94;5021887;28;20037;-63
2022/06/14 09:24:20;;;;;;;4.80;2.97;;;;;;;29.00;38.73;98659.34;5018592;28;20033;-63
2022/06/14 09:27:05;;;;;;;5.47;3.47;;;;;;;29.32;38.12;98661.84;5017108;28;20018;-64
2022/06/14 09:29:52;;;;;;;7.07;3.40;;;;;;;29.69;37.78;98634.78;5017064;28;20029;-64
2022/06/14 09:33:09;;;;;;;5.53;3.25;;;;;;;29.77;37.63;98662.94;5013714;28;20040;-63
2022/06/14 09:35:36;;;;;;;6.20;3.03;;;;;;;29.97;36.46;98662.09;5011526;28;20396;-63
2022/06/14 09:38:33;;;;;;;6.50;3.38;;;;;;;29.65;37.26;98625.69;5015719;28;20616;-64
2022/06/14 09:41:14;;;;;;;6.45;3.60;;;;;;;29.74;36.64;98635.88;5022249;28;20111;-64
2022/06/14 09:43:58;;;;;;;7.18;4.00;;;;;;;29.90;37.73;98654.34;5017476;28;20029;-63
2022/06/14 09:46:57;;;;;;;7.35;3.40;;;;;;;30.52;36.55;98653.41;5019101;28;20547;-64
2022/06/14 09:50:02;;;;;;;5.32;3.17;;;;;;;30.40;36.21;98627.69;5018928;28;20079;-64
2022/06/14 09:52:31;;;;;;;5.68;3.60;;;;;;;30.27;36.24;98622.91;5018811;28;20089;-63
2022/06/14 09:55:48;;;;;;;7.40;4.40;;;;;;;30.22;36.40;98639.00;5016635;28;20034;-63
2022/06/14 09:59:01;;;;;;;6.25;4.00;;;;;;;30.04;36.37;98635.81;5004048;28;20264;-63
2022/06/14 10:01:41;;;;;;;5.95;3.63;;;;;;;29.79;38.22;98643.91;5010874;28;20096;-63
2022/06/14 10:04:39;;;;;;;6.53;3.60;;;;;;;29.70;37.53;98641.75;5014810;28;20079;-63
2022/06/14 10:07:34;;;;;;;6.00;4.20;;;;;;;29.41;37.84;98638.81;5015304;28;20590;-63
2022/06/14 10:10:32;;;;;;;5.93;4.00;;;;;;;28.95;39.35;98642.22;5020364;28;20037;-63
2022/06/14 10:13:35;;;;;;;5.95;3.70;;;;;;;28.95;39.86;98639.53;5000418;28;20103;-63
2022/06/14 10:16:21;;;;;;;5.90;3.72;;;;;;;28.81;40.08;98643.00;5012399;28;20021;-63
2022/06/14 10:18:55;;;;;;;5.78;3.67;;;;;;;28.61;41.17;98643.72;5002895;28;20025;-62
2022/06/14 10:21:28;;;;;;;7.68;3.85;;;;;;;28.25;40.47;98636.31;5013473;28;20026;-63
2022/06/14 10:24:12;;;;;;;5.60;3.85;;;;;;;28.22;40.34;98644.84;5011188;28;20342;-63
2022/06/14 10:30:06;;;;;;;6.80;4.07;;;;;;;28.24;40.30;98647.25;5014941;28;20040;-63
2022/06/14 10:32:50;;;;;;;5.15;3.45;;;;;;;28.23;40.95;98638.44;5020374;28;20025;-62
2022/06/14 10:35:46;;;;;;;6.75;3.75;;;;;;;28.23;40.56;98645.66;5012768;28;20038;-63
2022/06/14 10:38:57;;;;;;;5.35;3.50;;;;;;;28.24;40.59;98634.72;5017043;28;20378;-63
2022/06/14 10:41:56;;;;;;;6.95;3.38;;;;;;;28.24;39.97;98639.22;4996389;28;20213;-63
2022/06/14 10:44:52;;;;;;;6.07;3.55;;;;;;;28.13;40.78;98635.69;4993965;28;20042;-63
2022/06/14 10:47:49;;;;;;;5.22;3.33;;;;;;;27.93;40.39;98634.53;5016025;28;20103;-63
2022/06/14 10:50:18;;;;;;;6.25;3.40;;;;;;;27.88;40.82;98634.47;5016650;28;20116;-63
2022/06/14 10:52:43;;;;;;;4.90;3.20;;;;;;;27.87;41.25;98632.84;5028403;28;20092;-63
2022/06/14 10:55:25;;;;;;;5.17;3.03;;;;;;;28.10;41.50;98631.69;5009516;28;20489;-63
2022/06/14 10:58:15;;;;;;;5.10;3.30;;;;;;;28.34;39.34;98632.06;5016864;28;20260;-63
2022/06/14 11:00:47;;;;;;;5.68;3.67;;;;;;;28.23;39.89;98630.41;5009716;28;20038;-63
2022/06/14 11:03:27;;;;;;;8.10;3.15;;;;;;;28.27;39.87;98628.81;4998979;28;20040;-64
2022/06/14 11:06:04;;;;;;;5.38;3.47;;;;;;;28.50;38.16;98630.28;5018895;28;20071;-62
2022/06/14 11:09:04;;;;;;;5.85;3.33;;;;;;;28.34;39.12;98621.38;5022354;28;20887;-63
2022/06/14 11:11:50;;;;;;;5.20;3.33;;;;;;;28.23;39.41;98625.06;5010843;28;20025;-63
2022/06/14 11:14:20;;;;;;;6.03;3.30;;;;;;;28.11;39.00;98603.91;5012923;28;20029;-63
2022/06/14 11:17:06;;;;;;;5.30;3.22;;;;;;;28.34;39.20;98610.69;5018219;28;20029;-63
2022/06/14 11:19:43;;;;;;;7.00;3.40;;;;;;;28.06;39.13;98581.69;5018012;28;20037;-63
2022/06/14 11:22:23;;;;;;;6.50;3.67;;;;;;;27.94;39.55;98579.22;5005034;28;20132;-63
2022/06/14 11:25:13;;;;;;;6.00;3.42;;;;;;;28.21;40.92;98613.84;5030277;28;20065;-63
2022/06/14 11:27:50;;;;;;;5.63;3.40;;;;;;;28.22;39.62;98591.41;4997279;28;20144;-65
2022/06/14 11:30:38;;;;;;;7.25;3.05;;;;;;;28.51;40.46;98607.81;4996931;28;20040;-63
2022/06/14 11:33:16;;;;;;;7.47;3.40;;;;;;;28.49;38.56;98603.78;4993415;28;20037;-64
2022/06/14 11:35:47;;;;;;;8.65;3.88;;;;;;;28.56;39.05;98599.03;5000599;28;20028;-62
2022/06/14 11:38:31;;;;;;;5.70;3.63;;;;;;;28.52;40.72;98603.28;4992291;28;20156;-64
2022/06/14 11:41:00;;;;;;;7.40;3.60;;;;;;;28.48;39.42;98594.97;5017356;28;20740;-64
2022/06/14 11:43:41;;;;;;;6.30;3.38;;;;;;;28.34;38.98;98577.81;5019820;28;20120;-63
2022/06/14 11:46:20;;;;;;;5.63;3.67;;;;;;;28.46;39.39;98596.28;5015588;28;20079;-64
2022/06/14 11:48:56;;;;;;;5.30;3.30;;;;;;;28.62;39.72;98595.28;4996332;28;20026;-63
2022/06/14 11:51:49;;;;;;;6.53;3.58;;;;;;;28.53;39.37;98586.16;5032381;28;20029;-63
2022/06/14 11:54:25;;;;;;;6.47;3.70;;;;;;;28.45;40.43;98567.94;5027732;28;20025;-63
2022/06/14 11:57:15;;;;;;;4.90;2.97;;;;;;;28.78;39.83;98592.66;5015597;28;20441;-63
2022/06/14 11:59:49;;;;;;;7.53;3.45;;;;;;;28.70;38.68;98575.28;5021627;28;20053;-64
2022/06/14 12:02:40;;;;;;;5.30;3.20;;;;;;;28.86;39.11;98579.59;5005740;28;20044;-63
2022/06/14 12:05:18;;;;;;;5.35;3.35;;;;;;;29.03;38.49;98573.97;5019492;28;20121;-63
2022/06/14 12:08:02;;;;;;;5.00;3.42;;;;;;;28.97;38.75;98579.59;5003529;28;20026;-63
2022/06/14 12:10:39;;;;;;;5.53;3.40;;;;;;;28.86;38.22;98573.41;5014298;28;20113;-63
2022/06/14 12:13:08;;;;;;;6.57;3.85;;;;;;;28.53;38.39;98567.44;5015866;28;20033;-62
2022/06/14 12:15:45;;;;;;;6.10;4.00;;;;;;;28.52;38.15;98545.22;5017145;28;20034;-63
2022/06/14 12:18:14;;;;;;;5.28;3.20;;;;;;;28.84;38.90;98571.03;5013667;28;20058;-63
2022/06/14 12:20:50;;;;;;;5.50;3.13;;;;;;;29.08;38.17;98571.31;5014643;28;20072;-63
2022/06/14 12:23:28;;;;;;;5.18;3.67;;;;;;;29.16;36.92;98563.84;5019503;28;20357;-64
2022/06/14 12:29:04;;;;;;;6.35;3.50;;;;;;;29.23;38.03;98564.38;5018231;28;20032;-63
2022/06/14 12:31:39;;;;;;;5.90;3.28;;;;;;;29.25;37.26;98560.34;5017562;28;20030;-64
2022/06/14 12:34:26;;;;;;;5.50;3.78;;;;;;;29.23;37.13;98559.81;5018616;28;20029;-64
2022/06/14 12:37:12;;;;;;;5.20;3.30;;;;;;;29.35;38.18;98551.50;5016981;28;20021;-64
2022/06/14 12:39:55;;;;;;;6.70;3.55;;;;;;;29.37;37.90;98554.75;5016076;28;20052;-63
2022/06/14 12:42:48;;;;;;;7.90;3.50;;;;;;;29.33;38.17;98548.31;5022744;28;20030;-63
2022/06/14 12:45:29;;;;;;;7.00;3.90;;;;;;;29.33;36.97;98541.09;5021824;28;20026;-65
2022/06/14 12:48:26;;;;;;;7.13;3.90;;;;;;;29.21;36.67;98542.44;5022144;28;20501;-63